sensor_id;sensor_type;location;lat;lon;timestamp;P1;durP1;ratioP1;P2;durP2;ratioP2
63653;SDS011;49809;47.418;19.080;2023-04-21T00:01:23;6.37;;;2.30;;
63653;SDS011;49809;47.418;19.080;2023-04-21T00:05:45;3.97;;;2.40;;
63653;SDS011;49809;47.418;19.080;2023-04-21T00:20:53;2.30;;;1.80;;
63653;SDS011;49809;47.418;19.080;2023-04-21T00:24:19;3.83;;;2.33;;
63653;SDS011;49809;47.418;19.080;2023-04-21T00:28:13;5.45;;;2.40;;
63653;SDS011;49809;47.418;19.080;2023-04-21T00:31:42;7.72;;;2.90;;
63653;SDS011;49809;47.418;19.080;2023-04-21T00:35:11;7.22;;;2.80;;
63653;SDS011;49809;47.418;19.080;2023-04-21T00:38:57;2.83;;;2.12;;
63653;SDS011;49809;47.418;19.080;2023-04-21T00:42:49;3.75;;;2.10;;
63653;SDS011;49809;47.418;19.080;2023-04-21T00:46:19;2.40;;;1.87;;
63653;SDS011;49809;47.418;19.080;2023-04-21T00:53:17;7.00;;;2.40;;
63653;SDS011;49809;47.418;19.080;2023-04-21T00:56:59;5.28;;;2.58;;
63653;SDS011;49809;47.418;19.080;2023-04-21T01:00:50;3.62;;;2.33;;
63653;SDS011;49809;47.418;19.080;2023-04-21T01:04:49;4.32;;;2.67;;
63653;SDS011;49809;47.418;19.080;2023-04-21T01:08:59;7.28;;;2.37;;
63653;SDS011;49809;47.418;19.080;2023-04-21T01:12:04;4.12;;;2.22;;
63653;SDS011;49809;47.418;19.080;2023-04-21T01:15:43;4.80;;;2.62;;
63653;SDS011;49809;47.418;19.080;2023-04-21T01:19:49;6.40;;;2.75;;
63653;SDS011;49809;47.418;19.080;2023-04-21T01:27:19;1.92;;;1.48;;
63653;SDS011;49809;47.418;19.080;2023-04-21T01:35:47;3.28;;;2.37;;
63653;SDS011;49809;47.418;19.080;2023-04-21T01:39:19;9.20;;;2.60;;
63653;SDS011;49809;47.418;19.080;2023-04-21T01:43:16;4.03;;;2.30;;
63653;SDS011;49809;47.418;19.080;2023-04-21T01:51:44;2.97;;;2.03;;
63653;SDS011;49809;47.418;19.080;2023-04-21T01:55:24;4.05;;;2.17;;
63653;SDS011;49809;47.418;19.080;2023-04-21T01:59:31;3.80;;;2.35;;
63653;SDS011;49809;47.418;19.080;2023-04-21T02:03:35;2.70;;;2.08;;
63653;SDS011;49809;47.418;19.080;2023-04-21T02:07:06;6.72;;;2.37;;
63653;SDS011;49809;47.418;19.080;2023-04-21T02:10:34;3.47;;;2.28;;
63653;SDS011;49809;47.418;19.080;2023-04-21T02:14:13;4.20;;;2.10;;
63653;SDS011;49809;47.418;19.080;2023-04-21T02:18:04;3.97;;;2.60;;
63653;SDS011;49809;47.418;19.080;2023-04-21T02:21:37;5.25;;;2.10;;
63653;SDS011;49809;47.418;19.080;2023-04-21T02:25:09;7.47;;;2.20;;
63653;SDS011;49809;47.418;19.080;2023-04-21T02:28:34;8.85;;;2.10;;
63653;SDS011;49809;47.418;19.080;2023-04-21T02:32:18;3.62;;;2.40;;
63653;SDS011;49809;47.418;19.080;2023-04-21T02:36:16;3.30;;;2.40;;
63653;SDS011;49809;47.418;19.080;2023-04-21T02:40:23;5.68;;;2.85;;
63653;SDS011;49809;47.418;19.080;2023-04-21T02:43:55;4.62;;;1.98;;
63653;SDS011;49809;47.418;19.080;2023-04-21T02:47:21;7.97;;;2.40;;
63653;SDS011;49809;47.418;19.080;2023-04-21T02:51:14;9.85;;;2.47;;
63653;SDS011;49809;47.418;19.080;2023-04-21T02:54:53;6.50;;;2.20;;
63653;SDS011;49809;47.418;19.080;2023-04-21T03:07:32;5.18;;;2.30;;
63653;SDS011;49809;47.418;19.080;2023-04-21T03:11:32;5.93;;;1.90;;
63653;SDS011;49809;47.418;19.080;2023-04-21T03:15:19;2.83;;;1.80;;
63653;SDS011;49809;47.418;19.080;2023-04-21T03:18:49;2.97;;;2.00;;
63653;SDS011;49809;47.418;19.080;2023-04-21T03:22:43;16.83;;;2.80;;
63653;SDS011;49809;47.418;19.080;2023-04-21T03:26:08;5.03;;;2.05;;
63653;SDS011;49809;47.418;19.080;2023-04-21T03:30:11;3.35;;;1.83;;
63653;SDS011;49809;47.418;19.080;2023-04-21T03:33:14;4.25;;;2.03;;
63653;SDS011;49809;47.418;19.080;2023-04-21T03:36:50;3.05;;;1.80;;
63653;SDS011;49809;47.418;19.080;2023-04-21T03:40:35;4.82;;;2.05;;
63653;SDS011;49809;47.418;19.080;2023-04-21T03:43:59;5.12;;;1.95;;
63653;SDS011;49809;47.418;19.080;2023-04-21T03:47:51;2.90;;;1.52;;
63653;SDS011;49809;47.418;19.080;2023-04-21T03:51:39;7.72;;;2.97;;
63653;SDS011;49809;47.418;19.080;2023-04-21T03:55:24;7.35;;;2.50;;
63653;SDS011;49809;47.418;19.080;2023-04-21T03:59:35;21.10;;;2.90;;
63653;SDS011;49809;47.418;19.080;2023-04-21T04:02:40;7.57;;;2.50;;
63653;SDS011;49809;47.418;19.080;2023-04-21T04:06:19;5.70;;;2.78;;
63653;SDS011;49809;47.418;19.080;2023-04-21T04:10:12;6.40;;;2.20;;
63653;SDS011;49809;47.418;19.080;2023-04-21T04:13:33;6.62;;;1.90;;
63653;SDS011;49809;47.418;19.080;2023-04-21T04:17:28;3.25;;;1.87;;
63653;SDS011;49809;47.418;19.080;2023-04-21T04:20:35;3.50;;;2.20;;
63653;SDS011;49809;47.418;19.080;2023-04-21T04:24:23;5.22;;;2.60;;
63653;SDS011;49809;47.418;19.080;2023-04-21T04:27:53;5.60;;;2.55;;
63653;SDS011;49809;47.418;19.080;2023-04-21T04:36:29;6.93;;;2.35;;
63653;SDS011;49809;47.418;19.080;2023-04-21T04:47:48;8.48;;;2.47;;
63653;SDS011;49809;47.418;19.080;2023-04-21T04:51:21;11.70;;;3.10;;
63653;SDS011;49809;47.418;19.080;2023-04-21T04:55:03;5.53;;;2.37;;
63653;SDS011;49809;47.418;19.080;2023-04-21T04:59:02;5.43;;;3.35;;
63653;SDS011;49809;47.418;19.080;2023-04-21T05:25:52;9.23;;;2.85;;
63653;SDS011;49809;47.418;19.080;2023-04-21T05:29:27;2.55;;;2.00;;
63653;SDS011;49809;47.418;19.080;2023-04-21T05:41:27;4.28;;;2.40;;
63653;SDS011;49809;47.418;19.080;2023-04-21T05:45:23;7.30;;;2.10;;
63653;SDS011;49809;47.418;19.080;2023-04-21T05:49:15;4.00;;;2.15;;
63653;SDS011;49809;47.418;19.080;2023-04-21T05:57:19;7.37;;;2.65;;
63653;SDS011;49809;47.418;19.080;2023-04-21T08:02:46;6.32;;;1.62;;
63653;SDS011;49809;47.418;19.080;2023-04-21T08:17:31;3.37;;;1.40;;
63653;SDS011;49809;47.418;19.080;2023-04-21T08:29:22;5.28;;;1.70;;
63653;SDS011;49809;47.418;19.080;2023-04-21T08:33:40;4.25;;;2.10;;
63653;SDS011;49809;47.418;19.080;2023-04-21T08:37:04;5.18;;;1.27;;
63653;SDS011;49809;47.418;19.080;2023-04-21T08:40:42;5.05;;;1.87;;
63653;SDS011;49809;47.418;19.080;2023-04-21T08:44:14;4.12;;;1.42;;
63653;SDS011;49809;47.418;19.080;2023-04-21T08:47:18;5.18;;;1.60;;
63653;SDS011;49809;47.418;19.080;2023-04-21T08:50:45;3.03;;;1.50;;
63653;SDS011;49809;47.418;19.080;2023-04-21T08:54:34;7.28;;;1.55;;
63653;SDS011;49809;47.418;19.080;2023-04-21T08:58:02;6.03;;;1.85;;
63653;SDS011;49809;47.418;19.080;2023-04-21T09:05:20;5.07;;;1.70;;
63653;SDS011;49809;47.418;19.080;2023-04-21T09:08:56;6.45;;;1.90;;
63653;SDS011;49809;47.418;19.080;2023-04-21T09:12:04;3.55;;;1.90;;
63653;SDS011;49809;47.418;19.080;2023-04-21T09:15:37;8.30;;;2.42;;
63653;SDS011;49809;47.418;19.080;2023-04-21T09:18:47;5.53;;;1.98;;
63653;SDS011;49809;47.418;19.080;2023-04-21T09:22:32;6.20;;;2.55;;
63653;SDS011;49809;47.418;19.080;2023-04-21T09:25:38;6.47;;;2.53;;
63653;SDS011;49809;47.418;19.080;2023-04-21T09:28:44;4.28;;;2.47;;
63653;SDS011;49809;47.418;19.080;2023-04-21T09:32:20;4.95;;;2.10;;
63653;SDS011;49809;47.418;19.080;2023-04-21T09:36:00;5.65;;;2.30;;
63653;SDS011;49809;47.418;19.080;2023-04-21T09:39:30;4.50;;;2.33;;
63653;SDS011;49809;47.418;19.080;2023-04-21T09:43:18;6.32;;;2.33;;
63653;SDS011;49809;47.418;19.080;2023-04-21T09:46:43;8.05;;;2.72;;
63653;SDS011;49809;47.418;19.080;2023-04-21T09:50:44;4.82;;;2.37;;
63653;SDS011;49809;47.418;19.080;2023-04-21T09:54:12;7.00;;;2.97;;
63653;SDS011;49809;47.418;19.080;2023-04-21T09:58:05;4.10;;;2.37;;
63653;SDS011;49809;47.418;19.080;2023-04-21T10:02:24;4.85;;;2.58;;
63653;SDS011;49809;47.418;19.080;2023-04-21T10:10:01;11.57;;;2.83;;
63653;SDS011;49809;47.418;19.080;2023-04-21T10:13:11;3.55;;;2.55;;
63653;SDS011;49809;47.418;19.080;2023-04-21T10:16:36;5.65;;;2.47;;
63653;SDS011;49809;47.418;19.080;2023-04-21T10:19:53;3.50;;;2.72;;
63653;SDS011;49809;47.418;19.080;2023-04-21T10:23:08;5.87;;;2.70;;
63653;SDS011;49809;47.418;19.080;2023-04-21T10:27:14;3.45;;;2.40;;
63653;SDS011;49809;47.418;19.080;2023-04-21T10:34:47;7.95;;;3.00;;
63653;SDS011;49809;47.418;19.080;2023-04-21T10:42:28;3.30;;;2.40;;
63653;SDS011;49809;47.418;19.080;2023-04-21T10:45:40;4.53;;;2.87;;
63653;SDS011;49809;47.418;19.080;2023-04-21T10:49:40;3.45;;;2.55;;
63653;SDS011;49809;47.418;19.080;2023-04-21T10:57:00;4.22;;;2.50;;
63653;SDS011;49809;47.418;19.080;2023-04-21T11:00:04;5.90;;;2.70;;
63653;SDS011;49809;47.418;19.080;2023-04-21T11:03:09;6.90;;;3.07;;
63653;SDS011;49809;47.418;19.080;2023-04-21T11:06:13;4.80;;;2.97;;
63653;SDS011;49809;47.418;19.080;2023-04-21T11:09:19;5.60;;;3.37;;
63653;SDS011;49809;47.418;19.080;2023-04-21T11:12:42;4.18;;;3.10;;
63653;SDS011;49809;47.418;19.080;2023-04-21T11:16:00;3.42;;;2.37;;
63653;SDS011;49809;47.418;19.080;2023-04-21T11:19:32;7.30;;;2.50;;
63653;SDS011;49809;47.418;19.080;2023-04-21T11:22:37;4.00;;;3.08;;
63653;SDS011;49809;47.418;19.080;2023-04-21T11:25:44;6.20;;;2.85;;
63653;SDS011;49809;47.418;19.080;2023-04-21T11:28:52;4.93;;;2.80;;
63653;SDS011;49809;47.418;19.080;2023-04-21T11:31:56;4.35;;;2.75;;
63653;SDS011;49809;47.418;19.080;2023-04-21T11:35:22;5.72;;;3.35;;
63653;SDS011;49809;47.418;19.080;2023-04-21T11:38:32;5.32;;;3.12;;
63653;SDS011;49809;47.418;19.080;2023-04-21T11:41:45;3.50;;;2.80;;
63653;SDS011;49809;47.418;19.080;2023-04-21T11:44:55;4.00;;;2.55;;
63653;SDS011;49809;47.418;19.080;2023-04-21T11:48:15;7.03;;;3.20;;
63653;SDS011;49809;47.418;19.080;2023-04-21T11:51:22;5.40;;;2.90;;
63653;SDS011;49809;47.418;19.080;2023-04-21T11:54:28;7.37;;;2.92;;
63653;SDS011;49809;47.418;19.080;2023-04-21T11:57:33;5.80;;;3.00;;
63653;SDS011;49809;47.418;19.080;2023-04-21T12:01:07;5.25;;;4.15;;
63653;SDS011;49809;47.418;19.080;2023-04-21T12:04:32;6.62;;;3.80;;
63653;SDS011;49809;47.418;19.080;2023-04-21T12:07:37;5.37;;;2.65;;
63653;SDS011;49809;47.418;19.080;2023-04-21T12:10:44;4.72;;;2.97;;
63653;SDS011;49809;47.418;19.080;2023-04-21T12:14:11;6.37;;;2.90;;
63653;SDS011;49809;47.418;19.080;2023-04-21T12:17:56;3.87;;;2.25;;
63653;SDS011;49809;47.418;19.080;2023-04-21T12:21:28;6.78;;;2.50;;
63653;SDS011;49809;47.418;19.080;2023-04-21T12:30:56;6.70;;;2.60;;
63653;SDS011;49809;47.418;19.080;2023-04-21T12:35:21;4.87;;;2.83;;
63653;SDS011;49809;47.418;19.080;2023-04-21T12:38:48;8.30;;;2.92;;
63653;SDS011;49809;47.418;19.080;2023-04-21T12:42:13;5.62;;;2.90;;
63653;SDS011;49809;47.418;19.080;2023-04-21T12:45:50;5.53;;;2.80;;
63653;SDS011;49809;47.418;19.080;2023-04-21T12:48:58;4.30;;;3.30;;
63653;SDS011;49809;47.418;19.080;2023-04-21T12:52:11;7.00;;;3.00;;
63653;SDS011;49809;47.418;19.080;2023-04-21T12:55:50;5.87;;;3.00;;
63653;SDS011;49809;47.418;19.080;2023-04-21T12:59:39;5.50;;;3.37;;
63653;SDS011;49809;47.418;19.080;2023-04-21T13:03:39;7.32;;;3.00;;
63653;SDS011;49809;47.418;19.080;2023-04-21T13:07:33;5.00;;;2.97;;
63653;SDS011;49809;47.418;19.080;2023-04-21T13:11:12;4.87;;;3.00;;
63653;SDS011;49809;47.418;19.080;2023-04-21T13:18:25;5.05;;;2.92;;
63653;SDS011;49809;47.418;19.080;2023-04-21T13:21:33;8.77;;;3.28;;
63653;SDS011;49809;47.418;19.080;2023-04-21T13:25:03;6.90;;;3.10;;
63653;SDS011;49809;47.418;19.080;2023-04-21T13:28:57;5.50;;;3.15;;
63653;SDS011;49809;47.418;19.080;2023-04-21T13:32:42;5.35;;;2.85;;
63653;SDS011;49809;47.418;19.080;2023-04-21T13:35:47;5.50;;;2.87;;
63653;SDS011;49809;47.418;19.080;2023-04-21T13:38:54;4.35;;;2.78;;
63653;SDS011;49809;47.418;19.080;2023-04-21T13:42:30;7.07;;;3.97;;
63653;SDS011;49809;47.418;19.080;2023-04-21T13:46:03;5.68;;;3.05;;
63653;SDS011;49809;47.418;19.080;2023-04-21T13:49:06;4.93;;;3.08;;
63653;SDS011;49809;47.418;19.080;2023-04-21T13:53:14;6.37;;;3.33;;
63653;SDS011;49809;47.418;19.080;2023-04-21T13:56:45;3.83;;;3.40;;
63653;SDS011;49809;47.418;19.080;2023-04-21T13:59:55;6.12;;;3.12;;
63653;SDS011;49809;47.418;19.080;2023-04-21T14:02:59;5.15;;;3.53;;
63653;SDS011;49809;47.418;19.080;2023-04-21T14:06:45;4.75;;;3.05;;
63653;SDS011;49809;47.418;19.080;2023-04-21T14:09:51;7.90;;;3.24;;
63653;SDS011;49809;47.418;19.080;2023-04-21T14:13:25;6.18;;;3.83;;
63653;SDS011;49809;47.418;19.080;2023-04-21T14:20:18;6.18;;;3.30;;
63653;SDS011;49809;47.418;19.080;2023-04-21T14:23:25;6.47;;;3.60;;
63653;SDS011;49809;47.418;19.080;2023-04-21T14:26:54;6.18;;;3.12;;
63653;SDS011;49809;47.418;19.080;2023-04-21T14:30:24;6.05;;;3.50;;
63653;SDS011;49809;47.418;19.080;2023-04-21T14:33:31;6.20;;;3.65;;
63653;SDS011;49809;47.418;19.080;2023-04-21T14:36:35;5.62;;;3.30;;
63653;SDS011;49809;47.418;19.080;2023-04-21T14:44:13;5.00;;;3.25;;
63653;SDS011;49809;47.418;19.080;2023-04-21T14:47:50;5.20;;;3.03;;
63653;SDS011;49809;47.418;19.080;2023-04-21T14:50:55;7.80;;;3.30;;
63653;SDS011;49809;47.418;19.080;2023-04-21T15:01:48;3.85;;;2.87;;
63653;SDS011;49809;47.418;19.080;2023-04-21T15:04:55;4.90;;;2.95;;
63653;SDS011;49809;47.418;19.080;2023-04-21T15:08:43;5.80;;;3.00;;
63653;SDS011;49809;47.418;19.080;2023-04-21T15:16:22;3.33;;;2.70;;
63653;SDS011;49809;47.418;19.080;2023-04-21T15:19:27;4.97;;;3.05;;
63653;SDS011;49809;47.418;19.080;2023-04-21T15:22:34;5.28;;;2.90;;
63653;SDS011;49809;47.418;19.080;2023-04-21T15:26:03;4.47;;;3.25;;
63653;SDS011;49809;47.418;19.080;2023-04-21T15:29:08;4.78;;;2.87;;
63653;SDS011;49809;47.418;19.080;2023-04-21T15:32:32;4.70;;;3.05;;
63653;SDS011;49809;47.418;19.080;2023-04-21T15:35:40;5.18;;;3.10;;
63653;SDS011;49809;47.418;19.080;2023-04-21T15:39:23;5.35;;;3.25;;
63653;SDS011;49809;47.418;19.080;2023-04-21T15:42:27;6.35;;;2.85;;
63653;SDS011;49809;47.418;19.080;2023-04-21T15:45:32;4.10;;;3.20;;
63653;SDS011;49809;47.418;19.080;2023-04-21T15:49:11;7.12;;;2.92;;
63653;SDS011;49809;47.418;19.080;2023-04-21T15:52:15;6.05;;;3.12;;
63653;SDS011;49809;47.418;19.080;2023-04-21T15:55:19;4.35;;;2.70;;
63653;SDS011;49809;47.418;19.080;2023-04-21T15:58:56;7.65;;;2.95;;
63653;SDS011;49809;47.418;19.080;2023-04-21T16:02:34;5.47;;;2.80;;
63653;SDS011;49809;47.418;19.080;2023-04-21T16:06:04;6.78;;;3.08;;
63653;SDS011;49809;47.418;19.080;2023-04-21T16:09:08;4.12;;;2.55;;
63653;SDS011;49809;47.418;19.080;2023-04-21T16:12:12;6.60;;;3.00;;
63653;SDS011;49809;47.418;19.080;2023-04-21T16:15:48;5.47;;;2.80;;
63653;SDS011;49809;47.418;19.080;2023-04-21T16:18:54;5.72;;;2.78;;
63653;SDS011;49809;47.418;19.080;2023-04-21T16:22:01;5.43;;;2.95;;
63653;SDS011;49809;47.418;19.080;2023-04-21T16:25:29;3.95;;;2.72;;
63653;SDS011;49809;47.418;19.080;2023-04-21T16:28:54;4.35;;;2.78;;
63653;SDS011;49809;47.418;19.080;2023-04-21T16:32:03;7.40;;;3.10;;
63653;SDS011;49809;47.418;19.080;2023-04-21T16:35:07;4.07;;;2.90;;
63653;SDS011;49809;47.418;19.080;2023-04-21T16:38:11;4.85;;;3.20;;
63653;SDS011;49809;47.418;19.080;2023-04-21T16:41:34;5.00;;;2.70;;
63653;SDS011;49809;47.418;19.080;2023-04-21T16:44:42;4.20;;;2.90;;
63653;SDS011;49809;47.418;19.080;2023-04-21T16:48:07;4.72;;;2.83;;
63653;SDS011;49809;47.418;19.080;2023-04-21T16:51:52;4.55;;;2.90;;
63653;SDS011;49809;47.418;19.080;2023-04-21T16:55:03;4.90;;;3.37;;
63653;SDS011;49809;47.418;19.080;2023-04-21T16:58:10;5.62;;;3.00;;
63653;SDS011;49809;47.418;19.080;2023-04-21T17:01:37;4.37;;;2.62;;
63653;SDS011;49809;47.418;19.080;2023-04-21T17:04:41;5.97;;;3.10;;
63653;SDS011;49809;47.418;19.080;2023-04-21T17:08:12;5.05;;;3.10;;
63653;SDS011;49809;47.418;19.080;2023-04-21T17:11:17;5.40;;;3.33;;
63653;SDS011;49809;47.418;19.080;2023-04-21T17:14:20;4.53;;;3.15;;
63653;SDS011;49809;47.418;19.080;2023-04-21T17:17:25;5.18;;;3.85;;
63653;SDS011;49809;47.418;19.080;2023-04-21T17:20:29;9.23;;;3.17;;
63653;SDS011;49809;47.418;19.080;2023-04-21T17:23:38;5.22;;;3.05;;
63653;SDS011;49809;47.418;19.080;2023-04-21T17:26:41;5.10;;;3.15;;
63653;SDS011;49809;47.418;19.080;2023-04-21T17:29:45;5.25;;;3.08;;
63653;SDS011;49809;47.418;19.080;2023-04-21T17:32:48;5.45;;;3.50;;
63653;SDS011;49809;47.418;19.080;2023-04-21T17:36:14;6.43;;;3.70;;
63653;SDS011;49809;47.418;19.080;2023-04-21T17:39:38;6.22;;;3.60;;
63653;SDS011;49809;47.418;19.080;2023-04-21T17:43:09;8.50;;;4.15;;
63653;SDS011;49809;47.418;19.080;2023-04-21T17:46:32;6.10;;;3.78;;
63653;SDS011;49809;47.418;19.080;2023-04-21T17:49:36;7.55;;;3.90;;
63653;SDS011;49809;47.418;19.080;2023-04-21T17:52:40;6.93;;;4.00;;
63653;SDS011;49809;47.418;19.080;2023-04-21T17:55:57;7.62;;;3.87;;
63653;SDS011;49809;47.418;19.080;2023-04-21T17:59:04;8.27;;;4.18;;
63653;SDS011;49809;47.418;19.080;2023-04-21T18:02:09;6.53;;;3.87;;
63653;SDS011;49809;47.418;19.080;2023-04-21T18:05:15;8.37;;;4.30;;
63653;SDS011;49809;47.418;19.080;2023-04-21T18:08:22;5.65;;;3.12;;
63653;SDS011;49809;47.418;19.080;2023-04-21T18:11:27;7.28;;;3.78;;
63653;SDS011;49809;47.418;19.080;2023-04-21T18:14:30;5.47;;;3.70;;
63653;SDS011;49809;47.418;19.080;2023-04-21T18:17:37;13.45;;;4.25;;
63653;SDS011;49809;47.418;19.080;2023-04-21T18:20:42;7.30;;;3.83;;
63653;SDS011;49809;47.418;19.080;2023-04-21T18:23:45;7.95;;;3.83;;
63653;SDS011;49809;47.418;19.080;2023-04-21T18:26:51;7.15;;;3.50;;
63653;SDS011;49809;47.418;19.080;2023-04-21T18:29:56;9.17;;;4.40;;
63653;SDS011;49809;47.418;19.080;2023-04-21T18:32:59;6.30;;;3.40;;
63653;SDS011;49809;47.418;19.080;2023-04-21T18:36:10;11.10;;;3.47;;
63653;SDS011;49809;47.418;19.080;2023-04-21T18:39:20;5.70;;;3.50;;
63653;SDS011;49809;47.418;19.080;2023-04-21T18:42:56;8.13;;;3.50;;
63653;SDS011;49809;47.418;19.080;2023-04-21T18:46:04;6.12;;;3.55;;
63653;SDS011;49809;47.418;19.080;2023-04-21T18:53:31;6.80;;;3.67;;
63653;SDS011;49809;47.418;19.080;2023-04-21T18:56:35;7.28;;;4.10;;
63653;SDS011;49809;47.418;19.080;2023-04-21T18:59:38;10.07;;;4.10;;
63653;SDS011;49809;47.418;19.080;2023-04-21T19:02:41;7.12;;;4.15;;
63653;SDS011;49809;47.418;19.080;2023-04-21T19:05:48;15.18;;;4.72;;
63653;SDS011;49809;47.418;19.080;2023-04-21T19:08:51;8.07;;;4.70;;
63653;SDS011;49809;47.418;19.080;2023-04-21T19:11:55;13.50;;;4.55;;
63653;SDS011;49809;47.418;19.080;2023-04-21T19:15:19;10.48;;;5.30;;
63653;SDS011;49809;47.418;19.080;2023-04-21T19:18:25;11.80;;;4.43;;
63653;SDS011;49809;47.418;19.080;2023-04-21T19:21:37;8.65;;;4.57;;
63653;SDS011;49809;47.418;19.080;2023-04-21T19:25:07;11.55;;;5.68;;
63653;SDS011;49809;47.418;19.080;2023-04-21T19:28:33;12.98;;;5.10;;
63653;SDS011;49809;47.418;19.080;2023-04-21T19:31:37;10.60;;;5.60;;
63653;SDS011;49809;47.418;19.080;2023-04-21T19:34:42;10.00;;;6.03;;
63653;SDS011;49809;47.418;19.080;2023-04-21T19:37:52;16.48;;;6.68;;
63653;SDS011;49809;47.418;19.080;2023-04-21T19:41:54;12.50;;;6.03;;
63653;SDS011;49809;47.418;19.080;2023-04-21T19:44:59;11.77;;;6.03;;
63653;SDS011;49809;47.418;19.080;2023-04-21T19:48:02;16.23;;;6.95;;
63653;SDS011;49809;47.418;19.080;2023-04-21T19:51:06;20.77;;;6.57;;
63653;SDS011;49809;47.418;19.080;2023-04-21T19:54:11;13.52;;;7.05;;
63653;SDS011;49809;47.418;19.080;2023-04-21T19:57:14;15.20;;;7.30;;
63653;SDS011;49809;47.418;19.080;2023-04-21T20:00:18;11.57;;;6.57;;
63653;SDS011;49809;47.418;19.080;2023-04-21T20:03:24;10.70;;;6.68;;
63653;SDS011;49809;47.418;19.080;2023-04-21T20:06:27;16.67;;;7.35;;
63653;SDS011;49809;47.418;19.080;2023-04-21T20:09:41;19.40;;;7.82;;
63653;SDS011;49809;47.418;19.080;2023-04-21T20:12:44;17.60;;;6.40;;
63653;SDS011;49809;47.418;19.080;2023-04-21T20:15:50;12.43;;;6.47;;
63653;SDS011;49809;47.418;19.080;2023-04-21T20:18:53;11.70;;;6.62;;
63653;SDS011;49809;47.418;19.080;2023-04-21T20:22:02;10.98;;;6.70;;
63653;SDS011;49809;47.418;19.080;2023-04-21T20:25:08;13.05;;;6.50;;
63653;SDS011;49809;47.418;19.080;2023-04-21T20:28:36;14.02;;;6.87;;
63653;SDS011;49809;47.418;19.080;2023-04-21T20:32:01;12.40;;;6.68;;
63653;SDS011;49809;47.418;19.080;2023-04-21T20:35:07;14.98;;;7.05;;
63653;SDS011;49809;47.418;19.080;2023-04-21T20:38:30;17.80;;;7.70;;
63653;SDS011;49809;47.418;19.080;2023-04-21T20:41:57;13.45;;;7.03;;
63653;SDS011;49809;47.418;19.080;2023-04-21T20:45:24;10.52;;;6.32;;
63653;SDS011;49809;47.418;19.080;2023-04-21T20:48:30;16.30;;;7.30;;
63653;SDS011;49809;47.418;19.080;2023-04-21T20:51:35;16.70;;;7.00;;
63653;SDS011;49809;47.418;19.080;2023-04-21T20:55:03;14.20;;;6.62;;
63653;SDS011;49809;47.418;19.080;2023-04-21T20:58:07;10.93;;;6.30;;
63653;SDS011;49809;47.418;19.080;2023-04-21T21:01:12;13.65;;;7.07;;
63653;SDS011;49809;47.418;19.080;2023-04-21T21:04:19;12.13;;;6.65;;
63653;SDS011;49809;47.418;19.080;2023-04-21T21:07:25;17.12;;;7.50;;
63653;SDS011;49809;47.418;19.080;2023-04-21T21:10:48;13.30;;;7.68;;
63653;SDS011;49809;47.418;19.080;2023-04-21T21:13:55;15.48;;;7.18;;
63653;SDS011;49809;47.418;19.080;2023-04-21T21:17:18;15.13;;;6.85;;
63653;SDS011;49809;47.418;19.080;2023-04-21T21:20:22;12.80;;;7.15;;
63653;SDS011;49809;47.418;19.080;2023-04-21T21:23:25;13.85;;;6.53;;
63653;SDS011;49809;47.418;19.080;2023-04-21T21:26:31;14.95;;;7.62;;
63653;SDS011;49809;47.418;19.080;2023-04-21T21:29:54;13.07;;;7.25;;
63653;SDS011;49809;47.418;19.080;2023-04-21T21:33:22;17.55;;;7.85;;
63653;SDS011;49809;47.418;19.080;2023-04-21T21:36:46;13.55;;;7.60;;
63653;SDS011;49809;47.418;19.080;2023-04-21T21:40:20;13.55;;;7.90;;
63653;SDS011;49809;47.418;19.080;2023-04-21T21:43:29;12.32;;;7.57;;
63653;SDS011;49809;47.418;19.080;2023-04-21T21:46:35;16.60;;;8.23;;
63653;SDS011;49809;47.418;19.080;2023-04-21T21:49:41;15.57;;;8.15;;
63653;SDS011;49809;47.418;19.080;2023-04-21T21:52:44;16.95;;;7.70;;
63653;SDS011;49809;47.418;19.080;2023-04-21T21:55:48;13.02;;;7.90;;
63653;SDS011;49809;47.418;19.080;2023-04-21T21:58:54;15.60;;;7.80;;
63653;SDS011;49809;47.418;19.080;2023-04-21T22:02:02;18.80;;;6.75;;
63653;SDS011;49809;47.418;19.080;2023-04-21T22:05:07;14.65;;;7.20;;
63653;SDS011;49809;47.418;19.080;2023-04-21T22:08:12;11.32;;;6.47;;
63653;SDS011;49809;47.418;19.080;2023-04-21T22:11:19;13.27;;;6.97;;
63653;SDS011;49809;47.418;19.080;2023-04-21T22:14:24;10.68;;;7.07;;
63653;SDS011;49809;47.418;19.080;2023-04-21T22:17:32;16.87;;;7.35;;
63653;SDS011;49809;47.418;19.080;2023-04-21T22:21:00;15.93;;;7.50;;
63653;SDS011;49809;47.418;19.080;2023-04-21T22:24:04;17.30;;;7.47;;
63653;SDS011;49809;47.418;19.080;2023-04-21T22:27:10;19.80;;;8.27;;
63653;SDS011;49809;47.418;19.080;2023-04-21T22:30:14;11.68;;;7.43;;
63653;SDS011;49809;47.418;19.080;2023-04-21T22:33:18;10.82;;;6.60;;
63653;SDS011;49809;47.418;19.080;2023-04-21T22:36:41;11.18;;;6.68;;
63653;SDS011;49809;47.418;19.080;2023-04-21T22:39:45;12.15;;;7.28;;
63653;SDS011;49809;47.418;19.080;2023-04-21T22:43:29;11.57;;;6.78;;
63653;SDS011;49809;47.418;19.080;2023-04-21T22:46:37;14.48;;;7.50;;
63653;SDS011;49809;47.418;19.080;2023-04-21T22:49:47;11.40;;;6.35;;
63653;SDS011;49809;47.418;19.080;2023-04-21T22:52:53;11.45;;;6.55;;
63653;SDS011;49809;47.418;19.080;2023-04-21T22:56:18;11.15;;;6.15;;
63653;SDS011;49809;47.418;19.080;2023-04-21T22:59:42;15.07;;;6.50;;
63653;SDS011;49809;47.418;19.080;2023-04-21T23:03:06;14.85;;;6.55;;
63653;SDS011;49809;47.418;19.080;2023-04-21T23:06:31;12.68;;;6.35;;
63653;SDS011;49809;47.418;19.080;2023-04-21T23:09:42;10.40;;;6.20;;
63653;SDS011;49809;47.418;19.080;2023-04-21T23:13:25;9.77;;;6.22;;
63653;SDS011;49809;47.418;19.080;2023-04-21T23:16:48;12.90;;;6.53;;
63653;SDS011;49809;47.418;19.080;2023-04-21T23:20:12;11.18;;;6.30;;
63653;SDS011;49809;47.418;19.080;2023-04-21T23:23:16;12.85;;;6.20;;
63653;SDS011;49809;47.418;19.080;2023-04-21T23:26:19;11.10;;;6.65;;
63653;SDS011;49809;47.418;19.080;2023-04-21T23:29:32;14.52;;;6.03;;
63653;SDS011;49809;47.418;19.080;2023-04-21T23:32:38;14.10;;;6.60;;
63653;SDS011;49809;47.418;19.080;2023-04-21T23:36:25;10.27;;;5.22;;
63653;SDS011;49809;47.418;19.080;2023-04-21T23:39:30;10.65;;;5.70;;
63653;SDS011;49809;47.418;19.080;2023-04-21T23:42:36;12.20;;;5.63;;
63653;SDS011;49809;47.418;19.080;2023-04-21T23:45:40;7.95;;;5.10;;
63653;SDS011;49809;47.418;19.080;2023-04-21T23:53:13;14.02;;;5.20;;
63653;SDS011;49809;47.418;19.080;2023-04-21T23:56:46;10.30;;;5.90;;
63653;SDS011;49809;47.418;19.080;2023-04-21T23:59:49;10.85;;;6.18;;
